Time;durP1;ratioP1;P1;durP2;ratioP2;P2;SDS_P1;SDS_P2;PMS_P1;PMS_P2;Temp;Humidity;BMP_temperature;BMP_pressure;BME280_temperature;BME280_humidity;BME280_pressure;Samples;Min_cycle;Max_cycle;Signal;HPM_P1;HPM_P2
2024/01/27 00:00:39;;;;;;;4.03;1.08;;;;;;;;;;10136158;29;20056;-75
2024/01/27 00:05:42;;;;;;;1.83;0.98;;;;;;;;;;10134670;29;20104;-75
2024/01/27 00:10:46;;;;;;;5.50;1.63;;;;;;;;;;10141792;29;20432;-75
2024/01/27 00:15:54;;;;;;;5.07;1.17;;;;;;;;;;10135810;29;20596;-75
2024/01/27 00:20:57;;;;;;;4.15;1.30;;;;;;;;;;10134812;29;20048;-75
2024/01/27 00:26:00;;;;;;;2.78;1.17;;;;;;;;;;10131159;29;20066;-75
2024/01/27 00:31:05;;;;;;;4.93;1.17;;;;;;;;;;10136377;29;20048;-75
2024/01/27 00:36:08;;;;;;;3.97;1.20;;;;;;;;;;10140353;29;20052;-76
2024/01/27 00:41:17;;;;;;;2.65;1.10;;;;;;;;;;10142996;29;20044;-76
2024/01/27 00:46:22;;;;;;;4.88;1.95;;;;;;;;;;10130124;29;20060;-75
2024/01/27 00:51:26;;;;;;;3.60;1.27;;;;;;;;;;10141546;29;20055;-75
2024/01/27 00:56:29;;;;;;;4.18;1.10;;;;;;;;;;10140917;29;20542;-75
2024/01/27 01:01:33;;;;;;;3.15;1.10;;;;;;;;;;10150019;29;20059;-75
2024/01/27 01:06:39;;;;;;;3.25;1.10;;;;;;;;;;10146353;29;20044;-75
2024/01/27 01:11:42;;;;;;;5.80;1.67;;;;;;;;;;10141579;29;20135;-75
2024/01/27 01:16:47;;;;;;;4.35;1.20;;;;;;;;;;10147652;29;20048;-75
2024/01/27 01:21:50;;;;;;;4.35;1.30;;;;;;;;;;10136373;29;20060;-75
2024/01/27 01:26:53;;;;;;;6.07;1.60;;;;;;;;;;10133716;29;20050;-75
2024/01/27 01:31:58;;;;;;;2.28;1.30;;;;;;;;;;10140667;29;20040;-75
2024/01/27 01:37:02;;;;;;;1.33;1.15;;;;;;;;;;10144242;29;20068;-75
2024/01/27 01:42:06;;;;;;;2.78;1.20;;;;;;;;;;10135265;29;20462;-75
2024/01/27 01:47:10;;;;;;;4.30;1.20;;;;;;;;;;10139809;29;20115;-75
2024/01/27 01:52:19;;;;;;;2.38;1.10;;;;;;;;;;10137054;29;20139;-75
2024/01/27 01:57:22;;;;;;;3.03;1.20;;;;;;;;;;10149970;29;20582;-75
2024/01/27 02:02:27;;;;;;;4.07;1.50;;;;;;;;;;10146012;29;20135;-75
2024/01/27 02:07:30;;;;;;;3.05;1.38;;;;;;;;;;10138181;29;20055;-75
2024/01/27 02:12:33;;;;;;;3.08;1.40;;;;;;;;;;10126987;29;20052;-76
2024/01/27 02:17:38;;;;;;;3.42;1.60;;;;;;;;;;10138377;29;20044;-76
2024/01/27 02:22:41;;;;;;;3.58;1.73;;;;;;;;;;10129420;29;20512;-76
2024/01/27 02:27:46;;;;;;;6.20;2.00;;;;;;;;;;10134048;29;20132;-75
2024/01/27 02:32:49;;;;;;;4.00;1.65;;;;;;;;;;10128915;29;20784;-75
2024/01/27 02:37:53;;;;;;;4.20;1.48;;;;;;;;;;10140643;29;20048;-75
2024/01/27 02:42:57;;;;;;;3.60;1.50;;;;;;;;;;10133701;29;20439;-75
2024/01/27 02:48:00;;;;;;;6.00;1.90;;;;;;;;;;10137308;29;20244;-75
2024/01/27 02:53:04;;;;;;;3.95;1.70;;;;;;;;;;10129638;29;20512;-75
2024/01/27 02:58:09;;;;;;;4.75;1.95;;;;;;;;;;10129991;29;20054;-75
2024/01/27 03:03:12;;;;;;;5.13;1.92;;;;;;;;;;10134192;29;20059;-75
2024/01/27 03:08:15;;;;;;;4.45;2.05;;;;;;;;;;10137662;29;20131;-75
2024/01/27 03:13:21;;;;;;;6.88;2.10;;;;;;;;;;10135217;29;20048;-75
2024/01/27 03:18:25;;;;;;;4.95;1.70;;;;;;;;;;10137098;29;20047;-75
2024/01/27 03:23:28;;;;;;;3.22;2.05;;;;;;;;;;10139327;29;20055;-75
2024/01/27 03:28:33;;;;;;;6.07;2.30;;;;;;;;;;10138845;29;20051;-75
2024/01/27 03:33:36;;;;;;;3.35;2.00;;;;;;;;;;10135641;29;20062;-75
2024/01/27 03:38:39;;;;;;;3.28;1.52;;;;;;;;;;10130744;29;20896;-75
2024/01/27 03:43:44;;;;;;;4.28;2.30;;;;;;;;;;10135836;29;20124;-75
2024/01/27 03:48:47;;;;;;;4.13;1.92;;;;;;;;;;10129590;29;20063;-75
2024/01/27 03:53:50;;;;;;;2.80;1.80;;;;;;;;;;10138160;29;20131;-75
2024/01/27 03:58:55;;;;;;;3.78;1.88;;;;;;;;;;10134484;29;20052;-75
2024/01/27 04:03:58;;;;;;;5.68;1.90;;;;;;;;;;10141053;29;20083;-75
2024/01/27 04:09:01;;;;;;;3.60;1.75;;;;;;;;;;10133291;29;20080;-75
2024/01/27 04:14:06;;;;;;;3.85;2.00;;;;;;;;;;10141053;29;20040;-75
2024/01/27 04:19:10;;;;;;;2.40;1.20;;;;;;;;;;10141941;29;20514;-75
2024/01/27 04:24:13;;;;;;;4.70;1.98;;;;;;;;;;10147168;29;20048;-75
2024/01/27 04:29:17;;;;;;;3.28;1.52;;;;;;;;;;10152248;29;20054;-75
2024/01/27 04:34:21;;;;;;;4.47;1.45;;;;;;;;;;10148703;29;20542;-75
2024/01/27 04:39:24;;;;;;;1.95;1.15;;;;;;;;;;10144442;29;20111;-75
2024/01/27 04:44:29;;;;;;;3.78;1.45;;;;;;;;;;10146390;29;20054;-75
2024/01/27 04:49:32;;;;;;;3.90;1.55;;;;;;;;;;10141673;29;20060;-75
2024/01/27 04:54:36;;;;;;;2.63;1.38;;;;;;;;;;10142258;29;20111;-75
2024/01/27 04:59:40;;;;;;;3.25;1.35;;;;;;;;;;10146194;29;20049;-75
2024/01/27 05:04:43;;;;;;;4.38;1.50;;;;;;;;;;10154886;29;20148;-75
2024/01/27 05:09:47;;;;;;;6.40;2.05;;;;;;;;;;10181585;23;20048;-75
2024/01/27 05:14:51;;;;;;;3.58;1.42;;;;;;;;;;10164215;29;20112;-75
2024/01/27 05:19:55;;;;;;;4.60;1.23;;;;;;;;;;10160715;29;20080;-75
2024/01/27 05:24:58;;;;;;;2.67;1.50;;;;;;;;;;10163085;29;20096;-75
2024/01/27 05:30:03;;;;;;;2.58;1.42;;;;;;;;;;10157098;29;20076;-75
2024/01/27 05:35:08;;;;;;;2.40;1.88;;;;;;;;;;10161111;29;20139;-75
2024/01/27 05:40:15;;;;;;;3.22;1.48;;;;;;;;;;10159496;29;20048;-75
2024/01/27 05:45:19;;;;;;;4.40;1.98;;;;;;;;;;10156236;29;20040;-75
2024/01/27 05:50:23;;;;;;;3.60;1.75;;;;;;;;;;10160752;29;20637;-75
2024/01/27 05:55:26;;;;;;;3.50;1.75;;;;;;;;;;10162954;29;20622;-75
2024/01/27 06:00:31;;;;;;;7.00;1.92;;;;;;;;;;10156548;29;20127;-75
2024/01/27 06:05:34;;;;;;;7.93;1.73;;;;;;;;;;10162085;29;20044;-75
2024/01/27 06:10:38;;;;;;;6.53;3.00;;;;;;;;;;10160285;29;20048;-75
2024/01/27 06:15:42;;;;;;;5.60;3.20;;;;;;;;;;10155834;29;20692;-75
2024/01/27 06:20:46;;;;;;;7.40;2.95;;;;;;;;;;10159029;29;20065;-75
2024/01/27 06:25:50;;;;;;;5.03;2.70;;;;;;;;;;10157451;29;20052;-75
2024/01/27 06:30:55;;;;;;;5.35;2.50;;;;;;;;;;10154005;29;20445;-75
2024/01/27 06:35:58;;;;;;;5.80;2.70;;;;;;;;;;10155781;29;20564;-75
2024/01/27 06:41:01;;;;;;;6.38;2.75;;;;;;;;;;10148724;29;20052;-75
2024/01/27 06:46:06;;;;;;;5.90;3.28;;;;;;;;;;10140928;29;20076;-75
2024/01/27 06:51:09;;;;;;;7.25;3.67;;;;;;;;;;10150724;29;20139;-75
2024/01/27 06:56:13;;;;;;;7.38;3.25;;;;;;;;;;10149805;29;20504;-75
2024/01/27 07:01:18;;;;;;;7.68;3.65;;;;;;;;;;10155603;29;20075;-75
2024/01/27 07:06:21;;;;;;;7.60;3.22;;;;;;;;;;10159091;29;20135;-75
2024/01/27 07:11:24;;;;;;;5.32;2.75;;;;;;;;;;10155326;29;20140;-75
2024/01/27 07:16:29;;;;;;;6.93;2.47;;;;;;;;;;10157231;29;20044;-75
2024/01/27 07:21:32;;;;;;;4.38;2.30;;;;;;;;;;10153845;29;20692;-75
2024/01/27 07:26:35;;;;;;;9.95;3.80;;;;;;;;;;10154262;29;20040;-75
2024/01/27 07:31:40;;;;;;;5.97;3.35;;;;;;;;;;10157845;29;20665;-75
2024/01/27 07:36:43;;;;;;;5.95;2.83;;;;;;;;;;10155042;29;20048;-75
2024/01/27 07:41:48;;;;;;;8.48;3.45;;;;;;;;;;10155816;29;20047;-75
2024/01/27 07:46:53;;;;;;;11.40;4.20;;;;;;;;;;10157618;29;20424;-75
2024/01/27 07:51:56;;;;;;;5.32;3.58;;;;;;;;;;10152190;29;20070;-75
2024/01/27 07:57:00;;;;;;;8.68;4.28;;;;;;;;;;10155087;29;20045;-75
2024/01/27 08:02:06;;;;;;;12.18;4.10;;;;;;;;;;10154359;29;20111;-75
2024/01/27 08:07:10;;;;;;;10.48;5.05;;;;;;;;;;10156506;29;20048;-75
2024/01/27 08:12:13;;;;;;;12.40;5.57;;;;;;;;;;10152103;29;20515;-75
2024/01/27 08:17:18;;;;;;;9.82;5.63;;;;;;;;;;10156889;29;20052;-75
2024/01/27 08:22:21;;;;;;;11.70;5.25;;;;;;;;;;10163465;29;20068;-75
2024/01/27 08:27:24;;;;;;;13.45;6.00;;;;;;;;;;10153794;29;20048;-75
2024/01/27 08:32:29;;;;;;;10.82;5.10;;;;;;;;;;10152301;29;20462;-75
2024/01/27 08:37:38;;;;;;;10.02;4.90;;;;;;;;;;10151646;29;20067;-75
2024/01/27 08:42:41;;;;;;;10.73;5.70;;;;;;;;;;10153301;29;20044;-75
2024/01/27 08:47:46;;;;;;;11.00;5.07;;;;;;;;;;10154348;29;20044;-75
2024/01/27 08:52:49;;;;;;;7.20;3.97;;;;;;;;;;10152104;29;20054;-75
2024/01/27 08:57:52;;;;;;;7.90;4.50;;;;;;;;;;10163768;29;20056;-75
2024/01/27 09:02:57;;;;;;;8.82;4.78;;;;;;;;;;10164305;29;20720;-75
2024/01/27 09:08:00;;;;;;;9.23;5.00;;;;;;;;;;10162866;29;20052;-75
2024/01/27 09:13:04;;;;;;;10.90;5.93;;;;;;;;;;10163048;29;20051;-75
2024/01/27 09:18:09;;;;;;;8.07;4.80;;;;;;;;;;10158305;29;20407;-75
2024/01/27 09:23:12;;;;;;;7.10;3.95;;;;;;;;;;10160041;29;20128;-75
2024/01/27 09:28:15;;;;;;;10.05;3.40;;;;;;;;;;10160669;29;20083;-75
2024/01/27 09:33:22;;;;;;;5.35;2.75;;;;;;;;;;10164566;29;20059;-75
2024/01/27 09:38:26;;;;;;;5.93;2.95;;;;;;;;;;10161291;29;20654;-75
2024/01/27 09:43:30;;;;;;;6.82;3.55;;;;;;;;;;10156670;29;20097;-76
2024/01/27 09:48:36;;;;;;;14.95;5.85;;;;;;;;;;10159977;29;20048;-76
2024/01/27 09:53:39;;;;;;;9.65;3.92;;;;;;;;;;10158835;29;20056;-76
2024/01/27 09:58:42;;;;;;;8.93;3.58;;;;;;;;;;10158476;29;20530;-76
2024/01/27 10:03:48;;;;;;;5.70;2.35;;;;;;;;;;10161077;29;20044;-76
2024/01/27 10:08:54;;;;;;;5.95;2.03;;;;;;;;;;10158197;29;20044;-76
2024/01/27 10:13:59;;;;;;;4.72;1.98;;;;;;;;;;10157781;29;20096;-76
2024/01/27 10:19:04;;;;;;;3.65;1.60;;;;;;;;;;10158239;29;20139;-76
2024/01/27 10:24:08;;;;;;;4.68;1.77;;;;;;;;;;10158810;29;20548;-76
2024/01/27 10:29:11;;;;;;;3.90;1.50;;;;;;;;;;10161233;29;20547;-76
2024/01/27 10:34:19;;;;;;;4.55;1.30;;;;;;;;;;10156343;29;20058;-76
2024/01/27 10:39:23;;;;;;;3.22;1.20;;;;;;;;;;10159302;29;20048;-76
2024/01/27 10:44:29;;;;;;;3.05;1.50;;;;;;;;;;10160318;29;20117;-76
2024/01/27 10:49:38;;;;;;;3.63;1.50;;;;;;;;;;10158543;29;20134;-76
2024/01/27 10:54:42;;;;;;;6.28;1.50;;;;;;;;;;10157509;29;20080;-76
2024/01/27 10:59:46;;;;;;;7.45;1.73;;;;;;;;;;10160207;29;20940;-76
2024/01/27 11:04:53;;;;;;;10.38;2.60;;;;;;;;;;10159086;29;20052;-76
2024/01/27 11:09:56;;;;;;;;;;;;;;;;;;10217694;23;20184;-76
2024/01/27 11:14:59;;;;;;;5.90;1.73;;;;;;;;;;10190053;28;19930;-75
2024/01/27 11:20:06;;;;;;;6.15;1.90;;;;;;;;;;10183790;29;20059;-76
2024/01/27 11:25:16;;;;;;;7.80;1.70;;;;;;;;;;10190931;29;20080;-75
2024/01/27 11:30:28;;;;;;;4.15;1.70;;;;;;;;;;10176747;29;20063;-76
2024/01/27 11:35:33;;;;;;;7.53;2.80;;;;;;;;;;10187569;29;20052;-76
2024/01/27 11:40:46;;;;;;;4.85;1.60;;;;;;;;;;10200862;28;20684;-75
2024/01/27 11:45:57;;;;;;;6.55;2.28;;;;;;;;;;10190332;28;20051;-75
2024/01/27 11:51:07;;;;;;;4.55;1.42;;;;;;;;;;10189790;29;20060;-75
2024/01/27 11:56:11;;;;;;;6.00;1.08;;;;;;;;;;10193763;29;20137;-75
2024/01/27 12:01:15;;;;;;;5.05;1.20;;;;;;;;;;10188739;29;20056;-75
2024/01/27 12:06:20;;;;;;;4.07;1.40;;;;;;;;;;10188366;29;20159;-75
2024/01/27 12:11:24;;;;;;;6.30;1.10;;;;;;;;;;10193356;29;20648;-75
2024/01/27 12:16:27;;;;;;;7.00;1.40;;;;;;;;;;10191246;29;20054;-75
2024/01/27 12:21:32;;;;;;;6.90;1.80;;;;;;;;;;10186695;29;20044;-76
2024/01/27 12:26:39;;;;;;;6.05;1.02;;;;;;;;;;10188244;29;20144;-75
2024/01/27 12:31:42;;;;;;;5.75;1.20;;;;;;;;;;10197518;29;20115;-75
2024/01/27 12:36:48;;;;;;;4.93;0.98;;;;;;;;;;10191005;28;20590;-75
2024/01/27 12:41:51;;;;;;;2.10;0.70;;;;;;;;;;10198298;29;20047;-75
2024/01/27 12:46:55;;;;;;;2.53;0.88;;;;;;;;;;10202664;28;20587;-75
2024/01/27 12:52:00;;;;;;;3.08;0.85;;;;;;;;;;10199708;28;20067;-75
2024/01/27 12:57:05;;;;;;;6.97;1.60;;;;;;;;;;10204225;29;20051;-76
2024/01/27 13:02:09;;;;;;;8.20;1.23;;;;;;;;;;10199444;29;20075;-75
2024/01/27 13:07:14;;;;;;;2.25;1.10;;;;;;;;;;10197113;29;20512;-76
2024/01/27 13:12:17;;;;;;;5.97;1.75;;;;;;;;;;10202808;29;20047;-75
2024/01/27 13:17:21;;;;;;;3.55;1.00;;;;;;;;;;10190431;29;20056;-76
2024/01/27 13:22:26;;;;;;;4.35;1.33;;;;;;;;;;10199167;29;20546;-75
2024/01/27 13:27:29;;;;;;;3.65;1.20;;;;;;;;;;10198992;29;20063;-75
2024/01/27 13:32:33;;;;;;;3.78;1.08;;;;;;;;;;10197800;29;20059;-75
2024/01/27 13:37:39;;;;;;;2.92;1.05;;;;;;;;;;10194824;29;20063;-75
2024/01/27 13:42:42;;;;;;;4.93;1.48;;;;;;;;;;10188320;29;20523;-75
2024/01/27 13:47:46;;;;;;;2.92;1.00;;;;;;;;;;10192022;29;20060;-75
2024/01/27 13:52:51;;;;;;;5.88;1.20;;;;;;;;;;10195742;28;20107;-75
2024/01/27 13:57:54;;;;;;;4.70;1.10;;;;;;;;;;10200273;29;20043;-75
2024/01/27 14:02:58;;;;;;;7.15;2.00;;;;;;;;;;10198409;29;20080;-75
2024/01/27 14:08:04;;;;;;;6.00;1.40;;;;;;;;;;10197688;29;20411;-75
2024/01/27 14:13:09;;;;;;;3.47;1.20;;;;;;;;;;10192202;29;20051;-75
2024/01/27 14:18:20;;;;;;;3.75;1.10;;;;;;;;;;10190968;29;20404;-75
2024/01/27 14:23:25;;;;;;;2.42;0.85;;;;;;;;;;10191722;29;20332;-75
2024/01/27 14:28:28;;;;;;;2.20;1.08;;;;;;;;;;10198680;29;20060;-75
2024/01/27 14:33:32;;;;;;;2.85;1.13;;;;;;;;;;10192126;29;20122;-75
2024/01/27 14:38:37;;;;;;;2.00;1.10;;;;;;;;;;10192052;28;20119;-75
2024/01/27 14:43:41;;;;;;;3.83;1.10;;;;;;;;;;10191889;29;20119;-75
2024/01/27 14:48:45;;;;;;;2.58;0.82;;;;;;;;;;10198327;28;20059;-75
2024/01/27 14:53:50;;;;;;;2.35;0.80;;;;;;;;;;10190245;29;20216;-75
2024/01/27 14:58:53;;;;;;;1.05;0.60;;;;;;;;;;10190990;28;21908;-75
2024/01/27 15:04:00;;;;;;;1.20;0.68;;;;;;;;;;10197715;29;20123;-75
2024/01/27 15:09:05;;;;;;;2.47;0.90;;;;;;;;;;10187724;29;20059;-75
2024/01/27 15:14:08;;;;;;;3.53;0.90;;;;;;;;;;10188870;29;20063;-75
2024/01/27 15:19:12;;;;;;;3.60;0.93;;;;;;;;;;10192973;29;20472;-75
2024/01/27 15:24:17;;;;;;;2.97;1.35;;;;;;;;;;10195578;29;20051;-75
2024/01/27 15:29:20;;;;;;;3.85;1.20;;;;;;;;;;10194490;29;20514;-75
2024/01/27 15:34:25;;;;;;;1.58;0.80;;;;;;;;;;10187945;29;20063;-75
2024/01/27 15:39:30;;;;;;;2.53;0.80;;;;;;;;;;10193222;29;20056;-75
2024/01/27 15:44:33;;;;;;;3.20;1.08;;;;;;;;;;10181260;29;20532;-75
2024/01/27 15:49:38;;;;;;;2.95;0.90;;;;;;;;;;10185149;29;20062;-75
2024/01/27 15:54:44;;;;;;;2.20;1.27;;;;;;;;;;10193059;28;20145;-75
2024/01/27 15:59:47;;;;;;;1.75;1.10;;;;;;;;;;10195772;29;20059;-75
2024/01/27 16:04:51;;;;;;;3.55;1.48;;;;;;;;;;10200618;29;20091;-75
2024/01/27 16:10:01;;;;;;;3.20;1.80;;;;;;;;;;10191961;29;20051;-75
2024/01/27 16:15:05;;;;;;;5.53;1.80;;;;;;;;;;10194131;29;20761;-75
2024/01/27 16:20:10;;;;;;;3.22;1.60;;;;;;;;;;10201598;29;20051;-75
2024/01/27 16:25:14;;;;;;;4.68;2.15;;;;;;;;;;10200485;28;20055;-75
2024/01/27 16:30:18;;;;;;;3.83;2.22;;;;;;;;;;10200929;29;20489;-75
2024/01/27 16:35:21;;;;;;;6.07;2.50;;;;;;;;;;10194485;28;20056;-75
2024/01/27 16:40:26;;;;;;;5.95;2.95;;;;;;;;;;10193544;29;20059;-75
2024/01/27 16:45:32;;;;;;;8.57;2.67;;;;;;;;;;10200177;29;20060;-75
2024/01/27 16:50:37;;;;;;;6.90;3.20;;;;;;;;;;10187269;29;20059;-75
2024/01/27 16:55:41;;;;;;;7.28;3.70;;;;;;;;;;10197509;28;20059;-75
2024/01/27 17:00:45;;;;;;;9.23;3.47;;;;;;;;;;10191539;29;20263;-75
2024/01/27 17:05:49;;;;;;;7.22;3.08;;;;;;;;;;10197859;29;20677;-75
2024/01/27 17:10:54;;;;;;;6.43;3.38;;;;;;;;;;10194740;23;20682;-76
2024/01/27 17:15:58;;;;;;;7.30;3.90;;;;;;;;;;10163939;28;20139;-76
2024/01/27 17:21:02;;;;;;;7.22;3.83;;;;;;;;;;10158022;29;20135;-75
2024/01/27 17:26:06;;;;;;;7.13;4.57;;;;;;;;;;10162589;29;20059;-76
2024/01/27 17:31:10;;;;;;;9.80;4.95;;;;;;;;;;10161201;29;20040;-76
2024/01/27 17:36:13;;;;;;;9.75;4.88;;;;;;;;;;10162415;29;20047;-75
2024/01/27 17:41:18;;;;;;;10.82;4.50;;;;;;;;;;10162063;29;20567;-76
2024/01/27 17:46:21;;;;;;;9.07;4.10;;;;;;;;;;10161921;29;20127;-76
2024/01/27 17:51:25;;;;;;;6.97;3.95;;;;;;;;;;10163502;29;20099;-75
2024/01/27 17:56:30;;;;;;;8.52;4.20;;;;;;;;;;10159810;29;20069;-75
2024/01/27 18:01:33;;;;;;;6.75;3.40;;;;;;;;;;10163394;29;20389;-75
2024/01/27 18:06:38;;;;;;;7.90;3.97;;;;;;;;;;10158544;29;20055;-75
2024/01/27 18:11:42;;;;;;;8.15;4.03;;;;;;;;;;10162638;29;20054;-75
2024/01/27 18:16:46;;;;;;;8.00;3.75;;;;;;;;;;10162097;29;20056;-75
2024/01/27 18:21:50;;;;;;;5.68;3.83;;;;;;;;;;10161638;29;20056;-75
2024/01/27 18:26:54;;;;;;;5.25;3.42;;;;;;;;;;10154558;29;20048;-75
2024/01/27 18:31:59;;;;;;;6.15;3.50;;;;;;;;;;10156795;29;20068;-76
2024/01/27 18:37:02;;;;;;;6.35;3.83;;;;;;;;;;10155236;29;20067;-76
2024/01/27 18:42:07;;;;;;;12.55;5.88;;;;;;;;;;10155819;29;20462;-75
2024/01/27 18:47:11;;;;;;;12.52;6.20;;;;;;;;;;10158932;29;20123;-75
2024/01/27 18:52:14;;;;;;;11.15;6.80;;;;;;;;;;10159554;29;20484;-75
2024/01/27 18:57:19;;;;;;;16.27;8.90;;;;;;;;;;10160449;29;20100;-75
2024/01/27 19:02:22;;;;;;;11.88;6.15;;;;;;;;;;10158650;29;20055;-75
2024/01/27 19:07:25;;;;;;;12.35;7.28;;;;;;;;;;10157043;29;20052;-75
2024/01/27 19:12:30;;;;;;;13.63;7.78;;;;;;;;;;10147043;29;20104;-75
2024/01/27 19:17:34;;;;;;;13.18;7.25;;;;;;;;;;10149762;29;20041;-76
2024/01/27 19:22:37;;;;;;;11.35;7.53;;;;;;;;;;10157248;29;20162;-75
2024/01/27 19:27:42;;;;;;;18.63;7.88;;;;;;;;;;10152299;29;20596;-75
2024/01/27 19:32:45;;;;;;;13.73;7.30;;;;;;;;;;10155593;29;20048;-75
2024/01/27 19:37:49;;;;;;;14.77;8.02;;;;;;;;;;10150020;29;20625;-75
2024/01/27 19:42:54;;;;;;;12.88;7.38;;;;;;;;;;10157178;29;20056;-75
2024/01/27 19:47:57;;;;;;;12.50;6.27;;;;;;;;;;10148888;29;20146;-75
2024/01/27 19:53:04;;;;;;;13.80;7.38;;;;;;;;;;10156050;29;20116;-75
2024/01/27 19:58:08;;;;;;;12.32;6.75;;;;;;;;;;10152695;29;20147;-77
2024/01/27 20:03:12;;;;;;;13.02;6.95;;;;;;;;;;10157170;29;20757;-75
2024/01/27 20:08:15;;;;;;;11.15;6.45;;;;;;;;;;10159675;29;20685;-76
2024/01/27 20:13:19;;;;;;;12.13;6.05;;;;;;;;;;10153724;29;20139;-75
2024/01/27 20:18:23;;;;;;;10.93;6.10;;;;;;;;;;10152958;29;20091;-75
2024/01/27 20:23:26;;;;;;;12.00;6.63;;;;;;;;;;10158218;29;20041;-75
2024/01/27 20:28:31;;;;;;;11.18;6.68;;;;;;;;;;10155836;29;20136;-75
2024/01/27 20:33:34;;;;;;;12.93;6.90;;;;;;;;;;10154111;29;20372;-75
2024/01/27 20:38:39;;;;;;;13.38;7.72;;;;;;;;;;10154683;29;20460;-75
2024/01/27 20:43:45;;;;;;;15.95;8.52;;;;;;;;;;10154582;29;20048;-75
2024/01/27 20:48:49;;;;;;;11.98;8.05;;;;;;;;;;10150275;29;20071;-75
2024/01/27 20:53:52;;;;;;;16.35;9.02;;;;;;;;;;10159162;29;20424;-75
2024/01/27 20:58:57;;;;;;;20.33;9.20;;;;;;;;;;10157579;29;20079;-75
2024/01/27 21:04:00;;;;;;;19.42;9.68;;;;;;;;;;10162922;29;20536;-75
2024/01/27 21:09:05;;;;;;;20.52;10.10;;;;;;;;;;10159482;29;20108;-75
2024/01/27 21:14:09;;;;;;;17.27;9.00;;;;;;;;;;10161609;29;20048;-75
2024/01/27 21:19:13;;;;;;;14.02;8.48;;;;;;;;;;10150673;29;20512;-75
2024/01/27 21:24:16;;;;;;;18.70;9.05;;;;;;;;;;10160479;29;20152;-75
2024/01/27 21:29:21;;;;;;;15.23;8.18;;;;;;;;;;10158129;29;20079;-75
2024/01/27 21:34:24;;;;;;;15.27;8.55;;;;;;;;;;10150665;29;20100;-75
2024/01/27 21:39:27;;;;;;;14.68;7.63;;;;;;;;;;10165335;29;20056;-75
2024/01/27 21:44:32;;;;;;;15.52;7.80;;;;;;;;;;10155248;29;20060;-75
2024/01/27 21:49:39;;;;;;;15.90;8.05;;;;;;;;;;10163491;29;20056;-75
2024/01/27 21:54:42;;;;;;;15.10;7.45;;;;;;;;;;10154941;29;20063;-75
2024/01/27 21:59:48;;;;;;;15.40;7.85;;;;;;;;;;10163005;29;20526;-75
2024/01/27 22:04:51;;;;;;;14.10;6.27;;;;;;;;;;10162403;29;20055;-75
2024/01/27 22:09:54;;;;;;;12.63;6.95;;;;;;;;;;10162362;29;20465;-75
2024/01/27 22:14:59;;;;;;;10.40;6.32;;;;;;;;;;10160651;29;20080;-75
2024/01/27 22:20:03;;;;;;;10.63;5.75;;;;;;;;;;10162108;29;20127;-75
2024/01/27 22:25:09;;;;;;;8.07;5.53;;;;;;;;;;10159570;29;20150;-75
2024/01/27 22:30:14;;;;;;;9.15;5.32;;;;;;;;;;10158497;29;20523;-75
2024/01/27 22:35:18;;;;;;;10.27;5.43;;;;;;;;;;10159584;29;20269;-75
2024/01/27 22:40:22;;;;;;;9.77;5.53;;;;;;;;;;10161023;29;20120;-75
2024/01/27 22:45:26;;;;;;;10.80;5.78;;;;;;;;;;10153947;29;20060;-75
2024/01/27 22:50:30;;;;;;;8.63;5.10;;;;;;;;;;10158702;29;20056;-76
2024/01/27 22:55:33;;;;;;;9.48;5.15;;;;;;;;;;10160188;29;20076;-75
2024/01/27 23:00:39;;;;;;;10.13;5.82;;;;;;;;;;10159922;29;20055;-75
2024/01/27 23:05:42;;;;;;;12.63;6.47;;;;;;;;;;10156677;29;20064;-75
2024/01/27 23:10:46;;;;;;;15.57;6.68;;;;;;;;;;10184990;23;20523;-74
2024/01/27 23:15:50;;;;;;;10.93;6.25;;;;;;;;;;10188141;28;20677;-74
2024/01/27 23:20:54;;;;;;;10.90;6.07;;;;;;;;;;10157007;29;20056;-74
2024/01/27 23:25:57;;;;;;;10.88;5.88;;;;;;;;;;10153899;29;20047;-74
2024/01/27 23:31:01;;;;;;;11.85;6.53;;;;;;;;;;10158922;29;20519;-74
2024/01/27 23:36:05;;;;;;;12.55;6.78;;;;;;;;;;10159064;29;20070;-74
2024/01/27 23:41:08;;;;;;;14.88;7.43;;;;;;;;;;10152125;29;20079;-74
2024/01/27 23:46:13;;;;;;;14.65;7.28;;;;;;;;;;10155907;29;20056;-74
2024/01/27 23:51:17;;;;;;;15.73;7.95;;;;;;;;;;10155506;29;20570;-74
2024/01/27 23:56:20;;;;;;;14.00;7.55;;;;;;;;;;10156817;29;20131;-74
